首页
METAR-TAF:

METAR-TAF

机场 :

帕波, 匈牙利

纬度: 47-12N, 经度: 017-30E, 海拔: 145米

当前天气观测

该预报发布于32分钟前的20:45 UTC
风速6节,风向
温度 12°C
湿度 62%
气压 1027 hPa
能见度10公里或以上
1500米以下无云,无积雨云

METAR: LHPA 272045Z 35006KT CAVOK 12/05 Q1027 NOSIG RMK BLU

时间: 23:17 (21:17 UTC)

预报

该预报发布于4小时和2分钟前的17:15 UTC
预报有效从27日的 18点(UTC)到 28日的 18点(UTC)
风速12节,风向
能见度10公里或以上
1500米以下无云,无积雨云
成为
从 27日的 18点(UTC)到 27日的 21点(UTC)
风速6节,风向
短暂存在
从 28日的 02点(UTC)到 28日的 06点(UTC)
风速3节,风向多变
能見度: 8000
成为
从 28日的 08点(UTC)到 28日的 10点(UTC)
风速12节,风向北转西北
几率 30% :
短暂存在
从 28日的 10点(UTC)到 28日的 18点(UTC)
风速14节,风向北转西北,有时为24节阵风
能見度: 8000
散云层高于4000英尺, 塔状积云.
散云层高于5000英尺
阵雨

TAF: LHPA 271715Z 2718/2818 35012KT CAVOK BECMG 2718/2721 35006KT TEMPO 2802/2806 VRB03KT 8000 MIBCFG NSC BECMG 2808/2810 34012KT PROB30 TEMPO 2810/2818 34014G24KT 8000 SHRA SCT040TCU SCT050

超过4000个机场的气象观测和天气预报(METAR&TAF报告)。

可查询的气象台以黄色和红色小点在地图上表示。

将鼠标移到小点上方,可查看气象台名称。

然后点击查看天气观测和预报。

如需切换地图:点击带黑十字的绿色按钮放大地图;点击带横线的绿色按钮缩小地图;或者点击绿色箭头查看邻近地区的地图。


METAR-TAF: